Time;durP1;ratioP1;P1;durP2;ratioP2;P2;SDS_P1;SDS_P2;PMS_P1;PMS_P2;Temp;Humidity;BMP_temperature;BMP_pressure;BME280_temperature;BME280_humidity;BME280_pressure;Samples;Min_cycle;Max_cycle;Signal;HPM_P1;HPM_P2
2024/03/19 00:00:40;;;;;;;0.10;0.10;;;;;;;6.83;90.02;100579.38;2539563;28;20581;-79
2024/03/19 00:01:54;;;;;;;0.20;0.20;;;;;;;6.81;90.18;100575.91;2539354;28;20247;-78
2024/03/19 00:03:08;;;;;;;0.17;0.17;;;;;;;6.80;90.29;100571.56;2540070;28;20129;-78
2024/03/19 00:04:22;;;;;;;0.30;0.30;;;;;;;6.78;89.90;100571.56;2546550;28;20017;-79
2024/03/19 00:05:35;;;;;;;0.20;0.20;;;;;;;6.75;90.42;100567.22;2526221;28;20036;-78
2024/03/19 00:06:48;;;;;;;0.10;0.10;;;;;;;6.73;89.96;100581.91;2514391;28;20046;-77
2024/03/19 00:08:01;;;;;;;0.30;0.30;;;;;;;6.71;90.16;100581.03;2510195;28;20129;-79
2024/03/19 00:09:15;;;;;;;0.20;0.20;;;;;;;6.68;90.18;100577.53;2513887;28;20033;-78
2024/03/19 00:10:28;;;;;;;0.73;0.73;;;;;;;6.65;90.20;100572.34;2511850;28;20038;-78
2024/03/19 00:11:41;;;;;;;0.35;0.35;;;;;;;6.62;89.89;100570.59;2513493;28;20038;-78
2024/03/19 00:12:54;;;;;;;0.10;0.10;;;;;;;6.60;90.25;100577.50;2513580;28;20017;-78
2024/03/19 00:14:08;;;;;;;0.10;0.10;;;;;;;6.59;90.13;100583.56;2519970;28;20280;-78
2024/03/19 00:15:21;;;;;;;0.43;0.43;;;;;;;6.55;89.94;100585.25;2520091;28;20029;-78
2024/03/19 00:16:34;;;;;;;0.20;0.20;;;;;;;6.51;89.83;100577.47;2520737;28;20026;-78
2024/03/19 00:17:47;;;;;;;0.10;0.10;;;;;;;6.47;90.09;100576.53;2516123;28;20038;-78
2024/03/19 00:19:01;;;;;;;0.20;0.20;;;;;;;6.47;89.95;100583.47;2530019;28;20029;-78
2024/03/19 00:20:14;;;;;;;0.10;0.10;;;;;;;6.48;89.90;100585.19;2536675;28;20025;-77
2024/03/19 00:21:28;;;;;;;0.20;0.20;;;;;;;6.49;90.13;100584.34;2537015;28;20025;-78
2024/03/19 00:22:41;;;;;;;0.10;0.10;;;;;;;6.49;90.12;100582.63;2528623;28;20109;-78
2024/03/19 00:23:54;;;;;;;0.20;0.20;;;;;;;6.47;90.20;100583.47;2526802;28;20159;-77
2024/03/19 00:25:08;;;;;;;0.20;0.20;;;;;;;6.45;90.14;100582.56;2516388;28;20121;-78
2024/03/19 00:26:21;;;;;;;0.20;0.20;;;;;;;6.44;90.22;100580.84;2515272;28;20034;-77
2024/03/19 00:27:34;;;;;;;0.30;0.30;;;;;;;6.42;90.15;100572.19;2517950;28;20042;-78
2024/03/19 00:28:47;;;;;;;0.20;0.20;;;;;;;6.41;90.07;100580.84;2520693;28;20038;-78
2024/03/19 00:30:03;;;;;;;0.20;0.20;;;;;;;6.38;89.97;100571.31;2526700;28;20117;-79
2024/03/19 00:31:16;;;;;;;0.20;0.20;;;;;;;6.35;90.00;100568.72;2530636;28;20497;-78
2024/03/19 00:32:30;;;;;;;0.20;0.20;;;;;;;6.33;90.08;100578.19;2528100;28;20067;-78
2024/03/19 00:33:43;;;;;;;0.20;0.20;;;;;;;6.29;90.16;100574.69;2516937;28;20116;-78
2024/03/19 00:34:57;;;;;;;0.10;0.10;;;;;;;6.26;90.28;100577.25;2530026;28;20482;-79
2024/03/19 00:36:11;;;;;;;0.22;0.22;;;;;;;6.25;89.91;100578.13;2531659;28;20013;-78
2024/03/19 00:37:24;;;;;;;0.10;0.10;;;;;;;6.22;90.17;100574.63;2514451;28;20153;-78
2024/03/19 00:38:37;;;;;;;0.20;0.20;;;;;;;6.20;90.36;100573.78;2518066;28;20026;-80
2024/03/19 00:39:51;;;;;;;0.25;0.25;;;;;;;6.16;90.02;100575.44;2534813;28;20079;-78
2024/03/19 00:41:04;;;;;;;0.20;0.20;;;;;;;6.13;89.93;100578.03;2548294;28;20052;-79
2024/03/19 00:42:18;;;;;;;0.15;0.15;;;;;;;6.09;90.06;100578.84;2524236;28;20034;-78
2024/03/19 00:43:31;;;;;;;0.10;0.10;;;;;;;6.05;90.12;100570.19;2520084;28;20014;-78
2024/03/19 00:44:45;;;;;;;0.10;0.10;;;;;;;6.02;89.91;100566.72;2518279;28;22763;-79
2024/03/19 00:45:58;;;;;;;0.20;0.20;;;;;;;5.98;90.10;100567.53;2514045;28;20057;-78
2024/03/19 00:47:11;;;;;;;0.10;0.10;;;;;;;5.92;90.05;100570.91;2515594;28;20045;-78
2024/03/19 00:48:24;;;;;;;0.20;0.20;;;;;;;5.88;89.81;100562.22;2522851;28;20687;-78
2024/03/19 00:49:38;;;;;;;0.20;0.20;;;;;;;5.86;89.81;100563.06;2518963;28;20038;-79
2024/03/19 00:50:51;;;;;;;0.60;0.60;;;;;;;5.83;89.97;100563.91;2532655;28;20021;-79
2024/03/19 00:52:05;;;;;;;0.10;0.10;;;;;;;5.82;90.14;100561.31;2520138;28;20084;-79
2024/03/19 00:53:19;;;;;;;0.17;0.17;;;;;;;5.80;89.85;100560.44;2525679;28;20033;-79
2024/03/19 00:54:33;;;;;;;0.30;0.30;;;;;;;5.77;89.99;100557.81;2535652;28;20108;-78
2024/03/19 00:55:46;;;;;;;0.55;0.55;;;;;;;5.74;89.96;100558.66;2543851;28;20097;-78
2024/03/19 00:56:59;;;;;;;0.15;0.15;;;;;;;5.73;89.93;100558.63;2537431;28;20029;-78
2024/03/19 00:58:14;;;;;;;0.10;0.10;;;;;;;5.69;90.00;100547.38;2545818;28;20037;-78
2024/03/19 00:59:27;;;;;;;0.40;0.40;;;;;;;5.67;89.94;100551.66;2542637;28;20025;-78
2024/03/19 01:00:40;;;;;;;0.10;0.10;;;;;;;5.65;90.19;100549.09;2535945;28;20034;-78
2024/03/19 01:01:53;;;;;;;0.20;0.20;;;;;;;5.65;89.90;100548.19;2531553;28;20025;-78
2024/03/19 01:03:08;;;;;;;0.20;0.20;;;;;;;5.65;89.81;100554.25;2547182;28;20043;-78
2024/03/19 01:04:23;;;;;;;0.30;0.30;;;;;;;5.65;90.10;100553.38;2526116;28;20131;-78
2024/03/19 01:05:36;;;;;;;0.30;0.30;;;;;;;5.64;90.09;100554.22;2517803;28;20052;-79
2024/03/19 01:06:50;;;;;;;0.20;0.20;;;;;;;5.60;89.87;100544.69;2523029;28;20118;-78
2024/03/19 01:08:06;;;;;;;0.20;0.20;;;;;;;5.57;89.98;100540.34;2538077;28;20040;-78
2024/03/19 01:09:22;;;;;;;0.28;0.28;;;;;;;5.54;89.89;100548.09;2528074;28;20030;-78
2024/03/19 01:10:35;;;;;;;0.25;0.25;;;;;;;5.52;89.84;100546.34;2527237;28;20452;-78
2024/03/19 01:11:48;;;;;;;1.25;1.25;;;;;;;5.49;90.16;100547.16;2529297;28;20060;-78
2024/03/19 01:13:02;;;;;;;0.10;0.10;;;;;;;5.44;90.04;100544.53;2532515;28;20044;-77
2024/03/19 01:14:15;;;;;;;0.10;0.10;;;;;;;5.40;89.61;100541.91;2522248;28;20057;-78
2024/03/19 01:15:28;;;;;;;0.30;0.30;;;;;;;5.36;90.06;100545.31;2519315;28;20033;-78
2024/03/19 01:16:41;;;;;;;0.20;0.20;;;;;;;5.31;89.93;100540.06;2526716;28;20026;-78
2024/03/19 01:17:55;;;;;;;0.20;0.20;;;;;;;5.27;89.71;100546.09;2516719;28;20038;-78
2024/03/19 01:19:08;;;;;;;0.15;0.15;;;;;;;5.25;89.88;100538.28;2532352;28;20082;-79
2024/03/19 01:20:21;;;;;;;1.23;1.13;;;;;;;5.24;90.07;100540.88;2526545;28;20018;-79
2024/03/19 01:21:34;;;;;;;0.13;0.13;;;;;;;5.22;89.78;100535.69;2513400;28;20038;-79
2024/03/19 01:22:48;;;;;;;0.00;0.00;;;;;;;5.20;89.96;100542.56;2525102;28;20033;-78
2024/03/19 01:24:01;;;;;;;0.20;0.20;;;;;;;5.20;89.99;100545.13;2539980;28;20100;-79
2024/03/19 01:25:14;;;;;;;0.30;0.30;;;;;;;5.19;90.02;100535.66;2536236;28;20109;-79
2024/03/19 01:26:27;;;;;;;0.35;0.35;;;;;;;5.18;89.81;100536.47;2541699;28;20048;-78
2024/03/19 01:27:41;;;;;;;0.15;0.15;;;;;;;5.17;90.27;100537.34;2526019;28;20017;-79
2024/03/19 01:28:55;;;;;;;0.10;0.10;;;;;;;5.14;89.97;100528.69;2529134;28;20018;-78
2024/03/19 01:30:10;;;;;;;0.20;0.20;;;;;;;5.11;89.98;100539.88;2529034;28;20041;-79
2024/03/19 01:31:23;;;;;;;0.30;0.30;;;;;;;5.08;89.84;100539.81;2521659;28;20041;-79
2024/03/19 01:32:36;;;;;;;0.20;0.20;;;;;;;5.07;89.98;100534.63;2542016;28;20049;-79
2024/03/19 01:33:50;;;;;;;0.20;0.20;;;;;;;5.06;90.08;100544.13;2525205;28;20041;-79
2024/03/19 01:35:03;;;;;;;0.20;0.20;;;;;;;5.07;89.92;100542.41;2530420;28;20021;-78
2024/03/19 01:36:17;;;;;;;0.20;0.20;;;;;;;5.03;90.24;100544.06;2531085;28;20049;-79
2024/03/19 01:37:30;;;;;;;0.20;0.20;;;;;;;5.01;90.20;100543.19;2527579;28;20029;-78
2024/03/19 01:38:43;;;;;;;0.30;0.30;;;;;;;4.99;89.83;100543.16;2523938;28;20033;-79
2024/03/19 01:39:56;;;;;;;0.15;0.15;;;;;;;4.99;89.99;100548.34;2524577;28;20079;-79
2024/03/19 01:41:15;;;;;;;0.20;0.20;;;;;;;4.99;90.20;100545.75;2531591;28;20029;-79
2024/03/19 01:42:28;;;;;;;0.20;0.20;;;;;;;4.98;90.15;100543.13;2537172;28;20040;-79
2024/03/19 01:43:42;;;;;;;0.30;0.30;;;;;;;4.96;89.92;100542.28;2520449;28;20038;-79
2024/03/19 01:45:12;;;;;;;0.38;0.38;;;;;;;4.97;90.05;100544.00;2539963;23;20044;-78
2024/03/19 01:46:27;;;;;;;0.10;0.10;;;;;;;4.96;90.05;100542.28;2526893;28;20056;-78
2024/03/19 01:47:42;;;;;;;0.35;0.35;;;;;;;4.95;90.06;100537.94;2531836;28;20039;-79
2024/03/19 01:48:55;;;;;;;0.20;0.20;;;;;;;4.94;90.12;100550.00;2531725;28;20018;-79
2024/03/19 01:50:10;;;;;;;0.10;0.10;;;;;;;4.92;90.07;100541.34;2522964;28;20037;-79
2024/03/19 01:51:25;;;;;;;0.22;0.22;;;;;;;4.90;90.24;100534.41;2521114;28;20025;-78
2024/03/19 01:52:40;;;;;;;0.20;0.20;;;;;;;4.89;90.29;100537.88;2535282;28;20080;-78
2024/03/19 01:53:55;;;;;;;0.20;0.20;;;;;;;4.87;90.02;100534.38;2533342;28;20108;-78
2024/03/19 01:55:10;;;;;;;0.10;0.10;;;;;;;4.86;90.16;100532.66;2529805;28;20663;-79
2024/03/19 01:56:24;;;;;;;0.10;0.10;;;;;;;4.87;90.07;100532.66;2524467;28;20017;-78
2024/03/19 01:57:37;;;;;;;0.20;0.20;;;;;;;4.87;90.03;100539.56;2525459;28;20065;-79
2024/03/19 01:58:51;;;;;;;0.10;0.10;;;;;;;4.86;90.20;100537.84;2518127;28;20022;-79
2024/03/19 02:00:05;;;;;;;0.50;0.50;;;;;;;4.88;90.25;100533.53;2516913;28;20093;-79
2024/03/19 02:01:18;;;;;;;0.20;0.20;;;;;;;4.87;90.22;100527.50;2527769;28;20103;-79
2024/03/19 02:02:36;;;;;;;0.30;0.30;;;;;;;4.86;90.12;100530.94;2528284;28;20018;-78
2024/03/19 02:03:49;;;;;;;0.20;0.20;;;;;;;4.84;90.16;100534.34;2527771;28;20041;-79
2024/03/19 02:05:06;;;;;;;0.20;0.20;;;;;;;4.81;90.39;100541.22;2522910;28;20068;-79
2024/03/19 02:06:20;;;;;;;0.20;0.20;;;;;;;4.78;90.11;100533.44;2511778;28;20085;-78
2024/03/19 02:07:34;;;;;;;0.20;0.20;;;;;;;4.80;90.35;100531.72;2514819;28;20022;-79
2024/03/19 02:09:05;;;;;;;0.28;0.28;;;;;;;4.78;90.22;100529.97;2510265;28;20045;-79
2024/03/19 02:10:18;;;;;;;0.10;0.10;;;;;;;4.75;90.17;100529.91;2514268;28;20109;-78
2024/03/19 02:11:32;;;;;;;0.25;0.25;;;;;;;4.72;90.12;100527.28;2527414;28;20025;-79
2024/03/19 02:12:46;;;;;;;0.30;0.30;;;;;;;4.69;90.17;100530.69;2516545;28;20014;-78
2024/03/19 02:13:59;;;;;;;0.10;0.10;;;;;;;4.68;90.11;100528.97;2517449;28;20026;-78
2024/03/19 02:15:13;;;;;;;0.17;0.17;;;;;;;4.64;89.96;100524.59;2509752;28;20034;-79
2024/03/19 02:16:26;;;;;;;0.15;0.15;;;;;;;4.64;90.12;100521.16;2523998;28;20025;-78
2024/03/19 02:17:40;;;;;;;0.30;0.30;;;;;;;4.62;90.00;100534.09;2533253;28;20029;-79
2024/03/19 02:19:13;;;;;;;0.10;0.10;;;;;;;4.61;90.05;100529.75;2529120;28;20072;-79
2024/03/19 02:20:26;;;;;;;;;;;;;;;4.57;90.02;100523.66;2507918;28;20116;-78
2024/03/19 02:21:39;;;;;;;0.15;0.15;;;;;;;4.51;90.09;100520.97;2517300;28;19914;-79
2024/03/19 02:22:53;;;;;;;0.20;0.20;;;;;;;4.47;90.13;100524.38;2525164;28;20028;-78
2024/03/19 02:24:06;;;;;;;0.20;0.20;;;;;;;4.44;90.14;100513.13;2528432;28;20533;-78
2024/03/19 02:25:20;;;;;;;0.28;0.28;;;;;;;4.41;89.93;100523.41;2524451;28;20022;-78
2024/03/19 02:26:33;;;;;;;0.17;0.17;;;;;;;4.36;90.36;100519.06;2509283;28;20246;-78
2024/03/19 02:27:46;;;;;;;0.10;0.10;;;;;;;4.33;90.06;100513.84;2520997;28;20439;-78
2024/03/19 02:29:00;;;;;;;0.20;0.20;;;;;;;4.31;89.96;100517.25;2522271;28;20019;-79
2024/03/19 02:30:13;;;;;;;0.40;0.40;;;;;;;4.27;90.35;100518.94;2524793;28;20474;-78
2024/03/19 02:31:28;;;;;;;0.73;0.73;;;;;;;4.25;89.99;100515.44;2520382;28;20021;-78
2024/03/19 02:32:41;;;;;;;0.10;0.10;;;;;;;4.23;90.29;100511.97;2532131;28;20068;-79
2024/03/19 02:33:55;;;;;;;0.30;0.30;;;;;;;4.23;90.03;100516.25;2531689;28;20042;-79
2024/03/19 02:35:08;;;;;;;0.20;0.20;;;;;;;4.22;90.00;100507.66;2525613;28;20037;-79
2024/03/19 02:36:24;;;;;;;1.85;1.15;;;;;;;4.20;90.04;100509.34;2525115;28;20030;-79
2024/03/19 02:37:38;;;;;;;0.28;0.28;;;;;;;4.20;90.03;100508.47;2518660;28;20086;-79
2024/03/19 02:38:51;;;;;;;0.20;0.20;;;;;;;4.18;89.95;100511.03;2508081;28;20018;-79
2024/03/19 02:40:05;;;;;;;0.10;0.10;;;;;;;4.17;90.09;100514.47;2518426;28;20088;-79
2024/03/19 02:41:19;;;;;;;0.20;0.20;;;;;;;4.17;90.01;100511.88;2520277;28;20022;-79
2024/03/19 02:42:32;;;;;;;0.20;0.20;;;;;;;4.17;90.20;100519.63;2526845;28;20022;-79
2024/03/19 02:43:46;;;;;;;0.17;0.17;;;;;;;4.15;90.12;100508.41;2529921;28;20524;-78
2024/03/19 02:44:59;;;;;;;0.20;0.20;;;;;;;4.13;90.49;100508.41;2528288;28;20041;-78
2024/03/19 02:46:12;;;;;;;0.30;0.30;;;;;;;4.12;90.28;100505.78;2537034;28;20097;-78
2024/03/19 02:47:26;;;;;;;0.20;0.20;;;;;;;4.12;90.38;100508.34;2528233;28;20120;-79
2024/03/19 02:48:39;;;;;;;0.20;0.20;;;;;;;4.13;90.29;100510.09;2521029;28;20018;-79
2024/03/19 02:49:52;;;;;;;0.20;0.20;;;;;;;4.16;90.40;100512.75;2502423;28;20035;-79
2024/03/19 02:51:05;;;;;;;0.20;0.20;;;;;;;4.17;90.41;100508.44;2503219;28;20073;-78
2024/03/19 02:52:19;;;;;;;0.20;0.20;;;;;;;4.17;90.30;100505.84;2511451;28;20038;-78
2024/03/19 02:53:32;;;;;;;0.30;0.30;;;;;;;4.12;90.52;100511.81;2519801;28;20059;-78
2024/03/19 02:54:45;;;;;;;0.20;0.20;;;;;;;4.10;90.35;100507.47;2527600;28;20021;-79
2024/03/19 02:55:58;;;;;;;0.28;0.28;;;;;;;4.07;90.26;100507.41;2512967;28;20014;-78
2024/03/19 02:57:12;;;;;;;0.20;0.20;;;;;;;4.05;90.44;100510.00;2515367;28;20085;-78
2024/03/19 02:58:26;;;;;;;0.20;0.20;;;;;;;4.05;90.20;100503.94;2524559;28;20046;-78
2024/03/19 02:59:39;;;;;;;0.20;0.20;;;;;;;4.07;90.21;100512.59;2513831;28;20085;-78
2024/03/19 03:00:53;;;;;;;0.20;0.20;;;;;;;4.07;90.37;100508.28;2506674;28;20094;-79
2024/03/19 03:02:06;;;;;;;0.10;0.10;;;;;;;4.08;90.42;100507.47;2501965;28;20038;-78
2024/03/19 03:03:20;;;;;;;0.20;0.20;;;;;;;4.07;90.47;100508.28;2512214;28;20064;-78
2024/03/19 03:04:33;;;;;;;0.77;0.77;;;;;;;4.05;90.06;100503.94;2506803;28;20082;-78
2024/03/19 03:05:46;;;;;;;0.20;0.20;;;;;;;4.02;90.06;100501.31;2509918;28;20096;-79
2024/03/19 03:07:00;;;;;;;0.20;0.20;;;;;;;4.01;90.18;100509.91;2527452;28;20034;-79
2024/03/19 03:08:13;;;;;;;0.20;0.20;;;;;;;3.97;90.41;100501.22;2518235;28;20034;-79
2024/03/19 03:09:26;;;;;;;0.20;0.20;;;;;;;3.94;90.23;100503.78;2510450;28;20038;-78
2024/03/19 03:10:40;;;;;;;0.20;0.20;;;;;;;3.92;89.92;100511.53;2501831;28;20114;-78
2024/03/19 03:11:53;;;;;;;0.10;0.10;;;;;;;3.90;90.32;100504.59;2501697;28;20030;-79
2024/03/19 03:13:06;;;;;;;0.20;0.20;;;;;;;3.87;90.17;100500.25;2509973;28;20105;-79
2024/03/19 03:14:19;;;;;;;0.20;0.20;;;;;;;3.85;90.33;100501.06;2501912;28;20117;-78
2024/03/19 03:15:33;;;;;;;0.20;0.20;;;;;;;3.83;90.14;100500.16;2515877;28;20018;-79
2024/03/19 03:16:46;;;;;;;0.10;0.10;;;;;;;3.81;90.48;100494.97;2513948;28;20014;-78
2024/03/19 03:18:00;;;;;;;0.20;0.20;;;;;;;3.79;90.23;100500.94;2517146;28;20495;-79
2024/03/19 03:19:13;;;;;;;0.28;0.28;;;;;;;3.77;90.28;100498.34;2517313;28;20026;-79
2024/03/19 03:20:26;;;;;;;0.20;0.20;;;;;;;3.77;90.27;100512.94;2518110;28;20077;-78
2024/03/19 03:21:40;;;;;;;0.20;0.20;;;;;;;3.76;90.13;100508.66;2511816;28;20030;-78
2024/03/19 03:22:53;;;;;;;0.17;0.17;;;;;;;3.74;90.28;100505.16;2512543;28;20511;-78
2024/03/19 03:24:06;;;;;;;0.10;0.10;;;;;;;3.73;90.38;100517.19;2502304;28;20023;-78
2024/03/19 03:25:20;;;;;;;0.10;0.10;;;;;;;3.73;90.19;100509.47;2504751;28;20534;-78
2024/03/19 03:26:33;;;;;;;0.10;0.10;;;;;;;3.74;90.23;100512.91;2515675;28;20025;-78
2024/03/19 03:27:46;;;;;;;0.20;0.20;;;;;;;3.72;90.37;100507.72;2512499;28;20022;-78
2024/03/19 03:28:59;;;;;;;0.20;0.20;;;;;;;3.74;90.17;100511.19;2506076;28;20061;-78
2024/03/19 03:30:13;;;;;;;0.20;0.20;;;;;;;3.75;90.35;100509.50;2515412;28;20120;-79
2024/03/19 03:31:27;;;;;;;0.10;0.10;;;;;;;3.75;90.22;100510.34;2517989;28;20022;-78
2024/03/19 03:32:42;;;;;;;0.20;0.20;;;;;;;3.75;90.62;100512.94;2520232;28;20026;-78
2024/03/19 03:33:55;;;;;;;0.15;0.15;;;;;;;3.75;90.38;100515.53;2512287;28;20563;-78
2024/03/19 03:35:10;;;;;;;0.20;0.20;;;;;;;3.75;90.29;100504.34;2519349;28;20037;-78
2024/03/19 03:36:23;;;;;;;0.20;0.20;;;;;;;3.74;90.48;100515.47;2526402;28;20052;-78
2024/03/19 03:37:37;;;;;;;0.20;0.20;;;;;;;3.72;90.23;100511.19;2516017;28;20494;-79
2024/03/19 03:38:50;;;;;;;0.28;0.28;;;;;;;3.72;90.28;100510.31;2508743;28;20026;-78
2024/03/19 03:40:13;;;;;;;0.20;0.20;;;;;;;3.72;90.32;100518.06;2516065;28;20033;-78
2024/03/19 03:41:27;;;;;;;3.30;2.15;;;;;;;3.71;90.48;100514.59;2499163;28;20464;-79
2024/03/19 03:42:41;;;;;;;0.30;0.30;;;;;;;3.70;90.44;100522.31;2513901;28;20025;-79
2024/03/19 03:43:54;;;;;;;0.20;0.20;;;;;;;3.69;90.18;100521.47;2507128;28;20025;-78
2024/03/19 03:45:10;;;;;;;0.28;0.28;;;;;;;3.68;90.21;100511.09;2500882;28;20037;-78
2024/03/19 03:46:23;;;;;;;0.32;0.32;;;;;;;3.68;90.46;100518.84;2517140;28;20054;-78
2024/03/19 03:47:40;;;;;;;0.20;0.20;;;;;;;3.68;90.44;100521.41;2514727;28;20014;-79
2024/03/19 03:48:53;;;;;;;0.20;0.20;;;;;;;3.68;90.34;100529.16;2519219;28;20109;-78
2024/03/19 03:50:08;;;;;;;0.20;0.20;;;;;;;3.68;90.34;100524.00;2532090;28;20026;-79
2024/03/19 03:51:21;;;;;;;0.28;0.28;;;;;;;3.68;90.56;100524.84;2520626;28;20033;-79
2024/03/19 03:52:35;;;;;;;0.30;0.30;;;;;;;3.65;90.50;100519.66;2511956;28;20050;-78
2024/03/19 03:53:49;;;;;;;0.20;0.20;;;;;;;3.66;90.45;100525.69;2510670;28;20037;-79
2024/03/19 03:55:03;;;;;;;0.10;0.10;;;;;;;3.62;90.43;100523.91;2512722;28;20030;-79
2024/03/19 03:56:16;;;;;;;0.15;0.15;;;;;;;3.58;90.27;100522.97;2511260;28;20037;-79
2024/03/19 03:57:29;;;;;;;0.20;0.20;;;;;;;3.58;90.22;100525.53;2508905;28;20102;-79
2024/03/19 03:58:42;;;;;;;0.20;0.20;;;;;;;3.57;90.48;100528.97;2534293;28;20028;-78
2024/03/19 03:59:56;;;;;;;0.20;0.20;;;;;;;3.58;90.40;100532.41;2528312;28;20033;-79
2024/03/19 04:01:09;;;;;;;0.20;0.20;;;;;;;3.55;90.18;100538.38;2522056;28;20060;-79
2024/03/19 04:02:23;;;;;;;0.10;0.10;;;;;;;3.52;90.30;100534.91;2512702;28;20039;-79
2024/03/19 04:03:36;;;;;;;0.20;0.20;;;;;;;3.47;90.36;100534.81;2509838;28;20022;-79
2024/03/19 04:04:52;;;;;;;0.10;0.10;;;;;;;3.45;90.37;100531.31;2502628;28;20058;-79
2024/03/19 04:06:05;;;;;;;0.10;0.10;;;;;;;3.43;90.32;100538.16;2521203;28;20037;-80
2024/03/19 04:07:19;;;;;;;0.20;0.20;;;;;;;3.42;90.47;100537.31;2509106;28;20102;-79
2024/03/19 04:08:32;;;;;;;0.20;0.20;;;;;;;3.40;90.26;100541.56;2506302;28;20507;-79
2024/03/19 04:09:45;;;;;;;0.10;0.10;;;;;;;3.37;90.61;100544.09;2516263;28;20041;-79
2024/03/19 04:10:58;;;;;;;0.10;0.10;;;;;;;3.34;90.58;100544.03;2522681;28;20010;-80
2024/03/19 04:12:12;;;;;;;0.10;0.10;;;;;;;3.32;90.36;100544.84;2522920;28;20149;-79
2024/03/19 04:13:25;;;;;;;0.10;0.10;;;;;;;3.31;90.36;100543.97;2511802;28;20029;-79
2024/03/19 04:14:38;;;;;;;0.10;0.10;;;;;;;3.32;90.47;100548.28;2505272;28;20019;-79
2024/03/19 04:15:52;;;;;;;0.10;0.10;;;;;;;3.31;90.41;100549.13;2517839;28;20021;-79
2024/03/19 04:17:06;;;;;;;0.20;0.20;;;;;;;3.31;90.50;100546.56;2518792;28;20018;-79
2024/03/19 04:18:19;;;;;;;0.10;0.10;;;;;;;3.32;90.33;100548.28;2516609;28;20054;-79
2024/03/19 04:19:32;;;;;;;1.30;1.30;;;;;;;3.31;90.29;100554.28;2509445;28;20023;-79
2024/03/19 04:20:45;;;;;;;0.10;0.10;;;;;;;3.30;90.48;100559.41;2514027;28;20022;-78
2024/03/19 04:21:59;;;;;;;0.20;0.20;;;;;;;3.28;90.53;100552.53;2514778;28;20488;-78
2024/03/19 04:23:12;;;;;;;0.10;0.10;;;;;;;3.30;90.46;100562.84;2514354;28;20112;-78
2024/03/19 04:24:26;;;;;;;0.10;0.10;;;;;;;3.32;90.33;100563.75;2513452;28;20030;-79
2024/03/19 04:25:40;;;;;;;0.25;0.25;;;;;;;3.35;90.53;100571.56;2518696;28;20090;-79
2024/03/19 04:26:53;;;;;;;0.10;0.10;;;;;;;3.38;90.70;100563.91;2512967;28;20030;-79
2024/03/19 04:28:06;;;;;;;0.10;0.10;;;;;;;3.41;90.02;100561.38;2513041;28;20015;-79
2024/03/19 04:29:19;;;;;;;0.20;0.20;;;;;;;3.43;90.42;100562.28;2513458;28;20030;-78
2024/03/19 04:30:33;;;;;;;0.10;0.10;;;;;;;3.45;90.70;100560.56;2515396;28;20449;-79
2024/03/19 04:31:46;;;;;;;0.30;0.30;;;;;;;3.48;90.50;100560.66;2513411;28;20445;-79
2024/03/19 04:32:59;;;;;;;0.17;0.17;;;;;;;3.50;90.70;100560.66;2509393;28;20098;-79
2024/03/19 04:34:12;;;;;;;0.15;0.15;;;;;;;3.50;90.67;100560.66;2518231;28;20055;-79
2024/03/19 04:35:25;;;;;;;0.13;0.13;;;;;;;3.47;90.59;100560.59;2512587;28;20034;-79
2024/03/19 04:36:39;;;;;;;0.20;0.20;;;;;;;3.47;90.58;100565.78;2512050;28;20042;-79
2024/03/19 04:37:52;;;;;;;0.10;0.10;;;;;;;3.46;90.55;100567.50;2502233;28;20115;-79
2024/03/19 04:39:11;;;;;;;0.15;0.15;;;;;;;3.45;90.50;100564.88;2516799;28;20032;-78
2024/03/19 04:40:25;;;;;;;0.20;0.20;;;;;;;3.44;90.43;100564.00;2511700;28;20034;-78
2024/03/19 04:41:39;;;;;;;0.10;0.10;;;;;;;3.45;90.68;100560.56;2519253;28;20106;-78
2024/03/19 04:42:53;;;;;;;0.20;0.20;;;;;;;3.47;90.43;100566.63;2524708;28;20052;-78
2024/03/19 04:44:07;;;;;;;0.10;0.10;;;;;;;3.47;90.62;100561.47;2529230;28;20021;-77
2024/03/19 04:45:20;;;;;;;0.10;0.10;;;;;;;3.48;90.50;100559.75;2528957;28;20038;-78
2024/03/19 04:46:34;;;;;;;0.20;0.20;;;;;;;3.48;90.60;100573.56;2523424;28;20033;-79
2024/03/19 04:47:47;;;;;;;0.63;0.63;;;;;;;3.48;90.57;100568.41;2501405;28;20215;-78
2024/03/19 04:49:00;;;;;;;0.20;0.20;;;;;;;3.50;90.85;100570.97;2516431;28;20021;-79
2024/03/19 04:50:14;;;;;;;0.30;0.30;;;;;;;3.50;90.52;100566.69;2537964;28;20569;-79
2024/03/19 04:51:27;;;;;;;0.28;0.28;;;;;;;3.54;90.67;100569.31;2528354;28;20046;-79
2024/03/19 04:52:41;;;;;;;0.25;0.25;;;;;;;3.55;90.60;100568.50;2522218;28;20009;-79
2024/03/19 04:53:54;;;;;;;0.13;0.13;;;;;;;3.57;90.69;100574.56;2534537;28;20037;-79
2024/03/19 04:55:08;;;;;;;0.20;0.20;;;;;;;3.59;90.93;100570.28;2530379;28;20084;-79
2024/03/19 04:56:22;;;;;;;0.10;0.10;;;;;;;3.61;90.49;100573.75;2515050;28;20026;-79
2024/03/19 04:57:36;;;;;;;0.20;0.20;;;;;;;3.61;90.68;100568.59;2520937;28;20032;-79
2024/03/19 04:58:50;;;;;;;0.20;0.20;;;;;;;3.61;90.78;100578.91;2513639;28;20033;-79
2024/03/19 05:00:04;;;;;;;0.10;0.10;;;;;;;3.59;90.51;100575.44;2520259;28;20106;-80
2024/03/19 05:01:18;;;;;;;0.10;0.10;;;;;;;3.61;90.59;100579.78;2524423;28;20022;-78
2024/03/19 05:02:32;;;;;;;0.20;0.20;;;;;;;3.61;90.67;100582.34;2529310;28;20546;-78
2024/03/19 05:03:46;;;;;;;0.20;0.20;;;;;;;3.63;90.57;100577.25;2526949;28;20040;-79
2024/03/19 05:04:59;;;;;;;0.20;0.20;;;;;;;3.65;90.70;100584.16;2526578;28;20022;-79
2024/03/19 05:06:12;;;;;;;0.30;0.30;;;;;;;3.67;90.75;100581.63;2516415;28;20038;-79
2024/03/19 05:07:25;;;;;;;0.38;0.38;;;;;;;3.70;90.72;100576.53;2511259;28;20534;-78
2024/03/19 05:08:39;;;;;;;0.28;0.28;;;;;;;3.73;90.94;100584.31;2513737;28;20155;-79
2024/03/19 05:09:55;;;;;;;0.10;0.10;;;;;;;3.76;90.87;100581.78;2500079;28;20122;-79
2024/03/19 05:11:08;;;;;;;0.20;0.20;;;;;;;3.79;90.85;100587.00;2515923;28;20511;-79
2024/03/19 05:12:22;;;;;;;0.20;0.20;;;;;;;3.80;90.80;100581.00;2523509;28;20022;-79
2024/03/19 05:13:35;;;;;;;0.10;0.10;;;;;;;3.79;90.74;100576.66;2532224;28;20094;-79
2024/03/19 05:14:48;;;;;;;0.30;0.30;;;;;;;3.78;91.04;100572.34;2530201;28;20021;-79
2024/03/19 05:16:02;;;;;;;0.10;0.10;;;;;;;3.77;90.65;100580.06;2523939;28;20021;-79
2024/03/19 05:17:15;;;;;;;0.28;0.28;;;;;;;3.75;90.69;100580.06;2513622;28;20033;-79
2024/03/19 05:18:28;;;;;;;0.20;0.20;;;;;;;3.74;90.90;100580.88;2523390;28;20188;-78
2024/03/19 05:19:41;;;;;;;0.30;0.30;;;;;;;3.74;90.80;100577.44;2533358;28;20036;-79
2024/03/19 05:20:54;;;;;;;0.10;0.10;;;;;;;3.72;90.71;100580.88;2526272;28;20026;-79
2024/03/19 05:22:09;;;;;;;0.20;0.20;;;;;;;3.71;90.71;100580.81;2527565;28;20034;-79
2024/03/19 05:23:22;;;;;;;0.17;0.17;;;;;;;3.73;90.76;100579.16;2529609;28;20026;-79
2024/03/19 05:24:35;;;;;;;0.13;0.13;;;;;;;3.79;90.98;100576.66;2513519;28;20026;-79
2024/03/19 05:25:48;;;;;;;0.10;0.10;;;;;;;3.86;91.13;100577.66;2522324;28;20034;-79
2024/03/19 05:27:02;;;;;;;0.17;0.17;;;;;;;3.85;91.13;100578.50;2526788;28;20104;-79
2024/03/19 05:28:15;;;;;;;0.55;0.55;;;;;;;3.87;90.94;100584.53;2520066;28;20036;-79
2024/03/19 05:29:28;;;;;;;0.20;0.20;;;;;;;3.88;91.01;100579.41;2509889;28;20023;-79
2024/03/19 05:30:41;;;;;;;0.10;0.10;;;;;;;3.91;91.18;100578.59;2507375;28;20046;-79
2024/03/19 05:31:55;;;;;;;0.20;0.20;;;;;;;3.92;91.21;100580.34;2509436;28;20030;-79
2024/03/19 05:33:08;;;;;;;0.30;0.30;;;;;;;3.91;90.88;100584.63;2512926;28;20117;-79
2024/03/19 05:34:21;;;;;;;0.20;0.20;;;;;;;3.90;90.98;100577.75;2519215;28;20038;-79
2024/03/19 05:35:34;;;;;;;0.20;0.20;;;;;;;3.89;90.87;100581.16;2509693;28;20027;-79
2024/03/19 05:36:48;;;;;;;0.20;0.20;;;;;;;3.86;91.05;100575.94;2508384;28;20037;-79
2024/03/19 05:38:01;;;;;;;0.10;0.10;;;;;;;3.85;90.87;100573.34;2519491;28;20427;-78
2024/03/19 05:39:14;;;;;;;0.20;0.20;;;;;;;3.83;91.17;100573.31;2528089;28;20030;-79
2024/03/19 05:40:27;;;;;;;0.22;0.22;;;;;;;3.83;91.04;100573.31;2526939;28;20090;-80
2024/03/19 05:41:41;;;;;;;0.20;0.20;;;;;;;3.82;91.01;100561.25;2518157;28;20030;-78
2024/03/19 05:42:54;;;;;;;0.13;0.13;;;;;;;3.82;91.05;100570.69;2513655;28;20030;-78
2024/03/19 05:44:07;;;;;;;0.10;0.10;;;;;;;3.83;91.08;100580.19;2523208;28;20096;-79
2024/03/19 05:45:20;;;;;;;0.10;0.10;;;;;;;3.85;91.00;100570.75;2497834;28;20035;-78
2024/03/19 05:46:34;;;;;;;0.63;0.63;;;;;;;3.86;91.08;100573.34;2504071;28;20439;-78
2024/03/19 05:47:47;;;;;;;0.20;0.20;;;;;;;3.88;91.17;100571.69;2507746;28;20802;-78